Time;durP1;ratioP1;P1;durP2;ratioP2;P2;SDS_P1;SDS_P2;PMS_P1;PMS_P2;Temp;Humidity;BMP_temperature;BMP_pressure;BME280_temperature;BME280_humidity;BME280_pressure;Samples;Min_cycle;Max_cycle;Signal;HPM_P1;HPM_P2
2021/12/14 00:01:26;;;;;;;18.00;13.07;;;5.30;99.90;;;;;;5074661;28;20198;-83
2021/12/14 00:04:01;;;;;;;22.93;14.47;;;5.30;99.90;;;;;;5073838;28;20209;-80
2021/12/14 00:06:29;;;;;;;20.17;13.87;;;5.30;59.90;;;;;;5074870;28;20201;-81
2021/12/14 00:09:00;;;;;;;18.03;13.93;;;5.20;40.90;;;;;;5073821;28;20248;-83
2021/12/14 00:11:50;;;;;;;15.47;12.50;;;5.20;44.30;;;;;;5073857;28;20206;-83
2021/12/14 00:15:02;;;;;;;19.13;13.17;;;5.20;16.50;;;;;;5073840;28;20244;-82
2021/12/14 00:17:20;;;;;;;17.67;12.37;;;5.10;10.90;;;;;;5074026;28;20209;-83
2021/12/14 00:19:48;;;;;;;15.57;11.83;;;5.10;23.80;;;;;;5073494;28;20202;-83
2021/12/14 00:22:25;;;;;;;13.80;11.93;;;5.10;17.70;;;;;;5073947;28;20243;-83
2021/12/14 00:24:51;;;;;;;14.47;11.13;;;5.10;5.80;;;;;;5073434;28;20198;-83
2021/12/14 00:27:22;;;;;;;14.77;11.57;;;5.10;1.00;;;;;;5073870;28;20213;-83
2021/12/14 00:29:53;;;;;;;17.00;11.93;;;5.10;1.00;;;;;;5073451;28;20210;-84
2021/12/14 00:32:26;;;;;;;16.13;14.07;;;5.10;1.00;;;;;;5074017;28;20206;-82
2021/12/14 00:34:57;;;;;;;19.97;14.70;;;5.00;1.00;;;;;;5073378;28;20804;-81
2021/12/14 00:37:28;;;;;;;15.20;12.70;;;5.00;1.00;;;;;;5073821;28;20202;-83
2021/12/14 00:39:57;;;;;;;15.43;12.13;;;5.00;1.00;;;;;;5073168;28;20210;-80
2021/12/14 00:42:24;;;;;;;16.77;12.60;;;5.00;1.00;;;;;;5072589;28;20658;-86
2021/12/14 00:44:51;;;;;;;16.90;11.30;;;5.00;1.00;;;;;;5073132;28;20569;-86
2021/12/14 00:47:19;;;;;;;18.93;13.47;;;5.00;1.00;;;;;;5073622;28;20657;-85
2021/12/14 00:49:48;;;;;;;13.57;12.13;;;4.90;1.00;;;;;;5073324;28;20205;-86
2021/12/14 00:52:15;;;;;;;13.23;11.67;;;4.80;1.00;;;;;;5073670;28;20202;-86
2021/12/14 00:54:42;;;;;;;17.83;13.03;;;4.80;1.00;;;;;;5073300;28;20247;-84
2021/12/14 00:57:10;;;;;;;17.87;12.70;;;4.80;1.00;;;;;;5073642;28;20206;-85
2021/12/14 00:59:37;;;;;;;17.20;13.67;;;4.70;1.00;;;;;;5073419;28;20261;-82
2021/12/14 01:02:08;;;;;;;20.17;14.60;;;4.80;1.00;;;;;;5073136;28;20252;-81
2021/12/14 01:04:38;;;;;;;22.87;15.43;;;4.70;1.00;;;;;;5073013;28;20218;-73
2021/12/14 01:07:10;;;;;;;23.97;15.87;;;4.70;1.00;;;;;;5073251;28;20206;-78
2021/12/14 01:09:40;;;;;;;22.30;15.80;;;4.70;1.00;;;;;;5072061;28;20631;-77
2021/12/14 01:12:14;;;;;;;21.80;15.37;;;4.60;1.00;;;;;;5072237;28;20205;-80
2021/12/14 01:14:46;;;;;;;25.27;17.30;;;4.40;1.00;;;;;;5071807;28;20234;-81
2021/12/14 01:17:27;;;;;;;20.93;14.87;;;4.20;3.30;;;;;;5072346;28;20573;-77
2021/12/14 01:19:58;;;;;;;20.93;15.43;;;4.00;99.90;;;;;;5072049;28;20605;-78
2021/12/14 01:22:40;;;;;;;21.20;15.60;;;4.00;99.90;;;;;;5072118;28;20300;-80
2021/12/14 01:25:13;;;;;;;19.33;13.03;;;4.00;99.90;;;;;;5072768;28;20198;-85
2021/12/14 01:27:53;;;;;;;18.53;13.37;;;4.10;99.90;;;;;;5072386;28;20206;-85
2021/12/14 01:30:28;;;;;;;15.67;12.93;;;4.30;1.00;;;;;;5072236;28;20206;-87
2021/12/14 01:33:00;;;;;;;18.97;14.10;;;4.40;1.00;;;;;;5071996;28;20233;-81
2021/12/14 01:35:31;;;;;;;15.43;12.37;;;4.40;1.00;;;;;;5072542;28;20206;-84
2021/12/14 01:38:05;;;;;;;19.97;12.47;;;4.30;99.90;;;;;;5072585;28;20209;-87
2021/12/14 01:40:54;;;;;;;14.90;10.50;;;4.30;99.90;;;;;;5073032;28;20301;-84
2021/12/14 01:43:28;;;;;;;13.37;11.03;;;4.30;99.90;;;;;;5072491;28;20216;-84
2021/12/14 01:45:55;;;;;;;15.97;12.03;;;4.30;99.90;;;;;;5071912;28;20206;-84
2021/12/14 01:48:23;;;;;;;14.40;10.33;;;4.20;99.90;;;;;;5072563;28;20206;-86
2021/12/14 01:50:57;;;;;;;12.87;11.20;;;4.00;99.90;;;;;;5071870;28;20198;-87
2021/12/14 01:53:26;;;;;;;16.83;12.57;;;4.10;99.90;;;;;;5072413;28;20242;-87
2021/12/14 01:55:57;;;;;;;13.83;11.07;;;4.10;99.90;;;;;;5071819;28;20718;-86
2021/12/14 01:58:32;;;;;;;11.93;9.70;;;4.00;99.90;;;;;;5072131;28;20210;-79
2021/12/14 02:01:03;;;;;;;15.07;11.00;;;4.00;99.90;;;;;;5071927;28;20206;-81
2021/12/14 02:03:35;;;;;;;15.93;12.00;;;4.00;93.00;;;;;;5072470;28;20206;-81
2021/12/14 02:06:02;;;;;;;15.47;13.33;;;3.90;9.30;;;;;;5072324;28;20247;-84
2021/12/14 02:08:33;;;;;;;13.33;10.60;;;3.70;1.00;;;;;;5072774;28;20202;-84
2021/12/14 02:11:04;;;;;;;14.23;11.40;;;3.60;26.60;;;;;;5072470;28;20259;-81
2021/12/14 02:13:35;;;;;;;16.47;11.63;;;3.50;99.90;;;;;;5072250;28;20768;-86
2021/12/14 02:16:03;;;;;;;15.27;11.63;;;3.40;99.90;;;;;;5072006;28;20275;-84
2021/12/14 02:18:31;;;;;;;13.67;10.53;;;3.30;99.90;;;;;;5072053;28;20263;-82
2021/12/14 02:21:02;;;;;;;14.43;11.93;;;3.30;99.90;;;;;;5071465;28;20301;-71
2021/12/14 02:23:30;;;;;;;13.27;11.03;;;3.40;99.90;;;;;;5071734;28;20198;-79
2021/12/14 02:26:00;;;;;;;15.87;12.80;;;3.50;99.90;;;;;;5070825;28;20665;-79
2021/12/14 02:28:27;;;;;;;16.90;11.80;;;3.60;99.90;;;;;;5071135;28;20622;-80
2021/12/14 02:30:57;;;;;;;16.27;11.97;;;3.60;99.90;;;;;;5070407;28;20689;-79
2021/12/14 02:33:29;;;;;;;13.03;10.40;;;3.60;99.90;;;;;;5070994;28;20230;-79
2021/12/14 02:35:57;;;;;;;13.00;11.60;;;3.50;99.90;;;;;;5071214;28;20213;-83
2021/12/14 02:38:26;;;;;;;18.73;13.40;;;3.50;99.90;;;;;;5071716;28;20251;-84
2021/12/14 02:40:58;;;;;;;13.17;11.37;;;3.60;99.90;;;;;;5071553;28;20217;-85
2021/12/14 02:43:30;;;;;;;16.07;12.57;;;3.60;99.90;;;;;;5071750;28;20244;-81
2021/12/14 02:46:04;;;;;;;16.50;13.60;;;3.40;79.10;;;;;;5070707;28;20202;-84
2021/12/14 02:48:31;;;;;;;13.93;11.67;;;3.30;98.30;;;;;;5071720;28;20202;-83
2021/12/14 02:51:06;;;;;;;16.90;11.60;;;3.40;99.90;;;;;;5071407;28;20206;-83
2021/12/14 02:53:36;;;;;;;14.87;11.43;;;3.40;99.90;;;;;;5071684;28;20226;-76
2021/12/14 02:56:09;;;;;;;14.17;11.80;;;3.50;99.90;;;;;;5071663;28;20727;-71
2021/12/14 02:58:36;;;;;;;12.83;11.17;;;3.50;99.90;;;;;;5070667;28;20625;-83
2021/12/14 03:01:04;;;;;;;13.30;11.20;;;3.50;99.90;;;;;;5071743;28;20206;-81
2021/12/14 03:03:31;;;;;;;14.53;11.27;;;3.60;96.70;;;;;;5071600;28;20573;-85
2021/12/14 03:05:59;;;;;;;16.07;11.70;;;3.50;67.10;;;;;;5072865;28;20201;-84
2021/12/14 03:08:29;;;;;;;13.00;10.87;;;3.60;1.00;;;;;;5075538;28;20198;-83
2021/12/14 03:11:10;;;;;;;13.30;9.97;;;3.60;1.00;;;;;;5074815;28;20198;-81
2021/12/14 03:13:39;;;;;;;10.40;9.27;;;3.60;1.00;;;;;;5074756;28;20332;-80
2021/12/14 03:16:10;;;;;;;11.97;9.70;;;3.60;1.00;;;;;;5074729;28;20657;-78
2021/12/14 03:18:39;;;;;;;15.00;11.93;;;3.50;1.00;;;;;;5074605;28;20350;-79
2021/12/14 03:21:10;;;;;;;17.33;11.87;;;3.70;1.00;;;;;;5074575;28;20202;-78
2021/12/14 03:23:40;;;;;;;21.70;12.57;;;3.90;1.00;;;;;;5074752;28;20210;-82
2021/12/14 03:26:11;;;;;;;28.53;13.83;;;4.10;1.00;;;;;;5075076;28;20202;-82
2021/12/14 03:28:40;;;;;;;19.10;13.93;;;4.20;1.00;;;;;;5074497;28;20206;-80
2021/12/14 03:31:27;;;;;;;21.57;12.37;;;4.20;99.90;;;;;;5075173;28;20202;-85
2021/12/14 03:33:58;;;;;;;20.63;12.37;;;4.10;99.90;;;;;;5074298;28;20233;-80
2021/12/14 03:36:28;;;;;;;20.00;10.10;;;4.00;99.90;;;;;;5074232;28;20205;-80
2021/12/14 03:39:00;;;;;;;18.33;11.50;;;4.00;99.90;;;;;;5074099;28;20267;-80
2021/12/14 03:41:32;;;;;;;19.47;12.10;;;4.10;99.90;;;;;;5074132;28;20213;-79
2021/12/14 03:44:02;;;;;;;17.53;11.30;;;4.00;99.90;;;;;;5074256;28;20205;-77
2021/12/14 03:46:33;;;;;;;21.53;13.97;;;3.90;99.90;;;;;;5074377;28;20505;-81
2021/12/14 03:49:01;;;;;;;18.10;12.60;;;3.90;99.90;;;;;;5074252;28;20210;-77
2021/12/14 03:51:28;;;;;;;21.23;11.83;;;3.90;99.90;;;;;;5074072;28;20210;-78
2021/12/14 03:53:57;;;;;;;19.07;12.57;;;3.90;99.90;;;;;;5073567;28;20242;-79
2021/12/14 03:56:25;;;;;;;16.53;12.67;;;3.80;99.90;;;;;;5073886;28;20255;-83
2021/12/14 03:58:57;;;;;;;16.63;11.93;;;3.80;27.70;;;;;;5073790;28;20661;-82
2021/12/14 04:01:25;;;;;;;15.13;12.27;;;3.80;1.00;;;;;;5074097;28;20205;-82
2021/12/14 04:03:57;;;;;;;22.17;13.47;;;3.70;1.00;;;;;;5073696;28;20267;-81
2021/12/14 04:06:25;;;;;;;20.17;12.33;;;3.70;1.00;;;;;;5074112;28;20202;-80
2021/12/14 04:08:52;;;;;;;18.53;12.83;;;3.70;1.00;;;;;;5073467;28;20735;-80
2021/12/14 04:11:19;;;;;;;20.47;12.07;;;3.70;1.00;;;;;;5073990;28;20198;-87
2021/12/14 04:13:49;;;;;;;22.53;12.67;;;3.80;1.00;;;;;;5073788;28;20275;-81
2021/12/14 04:16:21;;;;;;;20.93;12.33;;;3.70;1.00;;;;;;5073658;28;20214;-78
2021/12/14 04:18:49;;;;;;;24.30;12.03;;;3.70;1.00;;;;;;5072183;28;20206;-77
2021/12/14 04:21:19;;;;;;;22.20;13.47;;;3.70;1.00;;;;;;5073229;28;20621;-77
2021/12/14 04:23:49;;;;;;;20.03;12.30;;;3.70;44.10;;;;;;5072951;28;20202;-77
2021/12/14 04:26:18;;;;;;;20.73;12.60;;;3.70;99.90;;;;;;5073209;28;20267;-78
2021/12/14 04:28:49;;;;;;;23.07;12.77;;;3.70;99.90;;;;;;5072805;28;20727;-76
2021/12/14 04:31:18;;;;;;;21.40;11.70;;;3.70;99.90;;;;;;5073135;28;20674;-77
2021/12/14 04:33:47;;;;;;;21.50;12.37;;;3.70;99.90;;;;;;5072629;28;20270;-75
2021/12/14 04:36:18;;;;;;;20.63;10.90;;;3.40;99.90;;;;;;5073375;28;20202;-75
2021/12/14 04:38:54;;;;;;;20.43;12.17;;;3.40;99.90;;;;;;5072724;28;20301;-77
2021/12/14 04:52:29;;;;;;;21.33;13.67;;;3.60;99.90;;;;;;5073154;28;20213;-84
2021/12/14 04:54:58;;;;;;;26.70;12.73;;;3.60;99.90;;;;;;5072340;28;20299;-83
2021/12/14 04:57:28;;;;;;;18.23;11.73;;;3.40;99.90;;;;;;5073363;28;20206;-88
2021/12/14 04:59:59;;;;;;;15.27;11.27;;;3.40;99.90;;;;;;5072981;28;20240;-83
2021/12/14 05:02:31;;;;;;;17.07;13.10;;;3.40;77.50;;;;;;5073186;28;20256;-83
2021/12/14 05:05:00;;;;;;;14.57;10.73;;;3.40;1.00;;;;;;5073011;28;20270;-85
2021/12/14 05:07:48;;;;;;;15.00;11.50;;;3.30;1.00;;;;;;5072979;28;20206;-85
2021/12/14 05:10:18;;;;;;;14.43;11.87;;;3.20;1.00;;;;;;5072857;28;20206;-86
2021/12/14 05:12:46;;;;;;;11.37;9.80;;;3.00;1.00;;;;;;5072781;28;20210;-86
2021/12/14 05:15:16;;;;;;;10.97;8.93;;;2.70;1.00;;;;;;5072907;28;20291;-87
2021/12/14 05:17:45;;;;;;;12.70;10.43;;;2.60;1.00;;;;;;5077134;28;20206;-86
2021/12/14 05:20:15;;;;;;;12.97;10.17;;;2.50;27.40;;;;;;5083029;28;20211;-85
2021/12/14 05:22:45;;;;;;;11.10;9.40;;;2.60;94.50;;;;;;5092600;28;20209;-86
2021/12/14 05:25:17;;;;;;;13.43;9.00;;;2.60;99.90;;;;;;5092227;28;20201;-86
2021/12/14 05:27:49;;;;;;;11.30;9.07;;;2.60;99.90;;;;;;5092631;28;20231;-86
2021/12/14 05:30:21;;;;;;;12.37;10.40;;;2.50;99.90;;;;;;5084297;28;20202;-86
2021/12/14 05:32:56;;;;;;;12.60;10.80;;;2.50;99.90;;;;;;5092378;28;20716;-86
2021/12/14 05:35:25;;;;;;;12.20;8.43;;;2.50;99.90;;;;;;5089524;28;20241;-85
2021/12/14 05:37:55;;;;;;;12.20;8.97;;;2.50;99.90;;;;;;5087178;28;20209;-84
2021/12/14 05:40:43;;;;;;;12.80;10.13;;;2.50;99.90;;;;;;5092361;28;20213;-84
2021/12/14 05:43:13;;;;;;;14.33;10.20;;;2.50;99.90;;;;;;5092410;28;20205;-85
2021/12/14 05:45:43;;;;;;;14.90;11.20;;;2.60;99.90;;;;;;5091539;28;20672;-79
2021/12/14 05:48:18;;;;;;;19.43;11.67;;;2.60;99.90;;;;;;5091521;28;20210;-81
2021/12/14 05:50:51;;;;;;;17.13;10.93;;;2.50;99.90;;;;;;5077750;28;20205;-81
2021/12/14 05:53:21;;;;;;;19.70;12.10;;;2.50;99.90;;;;;;5091184;28;20254;-87
2021/12/14 05:55:48;;;;;;;21.07;13.63;;;2.40;99.90;;;;;;5091382;28;20282;-86
2021/12/14 05:58:17;;;;;;;16.63;9.80;;;2.30;99.90;;;;;;5091997;28;20205;-82
2021/12/14 06:00:47;;;;;;;18.60;11.93;;;2.40;99.90;;;;;;5091806;28;20206;-82
2021/12/14 06:03:24;;;;;;;26.67;12.40;;;2.60;99.90;;;;;;5092376;28;20233;-81
2021/12/14 06:05:53;;;;;;;20.20;12.27;;;2.80;1.00;;;;;;5091789;28;20259;-77
2021/12/14 06:08:22;;;;;;;33.87;15.07;;;2.80;99.90;;;;;;5091839;28;20252;-86
2021/12/14 06:10:50;;;;;;;32.03;13.17;;;2.50;99.10;;;;;;5091887;28;20213;-85
2021/12/14 06:13:18;;;;;;;29.83;12.07;;;2.50;94.10;;;;;;5091728;28;20205;-84
2021/12/14 06:15:47;;;;;;;17.20;10.53;;;2.30;99.90;;;;;;5090032;28;20738;-87
2021/12/14 06:18:23;;;;;;;21.43;12.30;;;2.30;99.90;;;;;;5089742;28;20722;-75
2021/12/14 06:20:50;;;;;;;22.93;12.00;;;2.30;99.90;;;;;;5089472;28;20209;-78
2021/12/14 06:23:24;;;;;;;20.00;10.83;;;2.40;99.90;;;;;;5089878;28;20233;-89
2021/12/14 06:25:51;;;;;;;21.97;11.33;;;2.50;99.90;;;;;;5090056;28;20614;-84
2021/12/14 06:28:23;;;;;;;15.40;10.47;;;2.20;99.90;;;;;;5090692;28;20613;-82
2021/12/14 06:30:50;;;;;;;11.53;9.30;;;2.30;99.90;;;;;;5091323;28;20262;-84
2021/12/14 06:33:17;;;;;;;15.13;9.80;;;2.40;99.90;;;;;;5091743;28;20234;-84
2021/12/14 06:35:49;;;;;;;19.03;10.93;;;2.30;99.90;;;;;;5091123;28;20298;-82
2021/12/14 06:38:27;;;;;;;20.37;11.70;;;2.30;54.50;;;;;;5091520;28;20572;-83
2021/12/14 06:41:05;;;;;;;22.30;10.57;;;2.10;42.50;;;;;;5089483;28;20209;-84
2021/12/14 06:43:36;;;;;;;22.50;12.97;;;2.20;99.90;;;;;;5091621;28;20262;-83
2021/12/14 06:46:07;;;;;;;18.73;10.93;;;2.20;99.90;;;;;;5091242;28;20560;-76
2021/12/14 06:48:39;;;;;;;18.00;10.63;;;2.20;95.40;;;;;;5091033;28;20205;-76
2021/12/14 06:51:11;;;;;;;17.67;10.77;;;2.20;28.40;;;;;;5090722;28;20201;-82
2021/12/14 06:53:38;;;;;;;13.83;9.57;;;2.30;26.10;;;;;;5091168;28;20206;-87
2021/12/14 06:56:08;;;;;;;12.57;9.23;;;2.10;1.00;;;;;;5091920;28;20366;-88
2021/12/14 06:58:39;;;;;;;14.13;10.57;;;1.90;1.00;;;;;;5091360;28;20563;-80
2021/12/14 07:01:09;;;;;;;17.37;10.30;;;1.90;1.00;;;;;;5091683;28;20205;-88
2021/12/14 07:03:43;;;;;;;15.40;10.60;;;1.80;1.00;;;;;;5091434;28;20271;-87
2021/12/14 07:06:21;;;;;;;21.87;10.43;;;1.80;1.00;;;;;;5091366;28;20266;-85
2021/12/14 07:08:49;;;;;;;18.67;10.93;;;1.80;22.70;;;;;;5090802;28;20201;-82
2021/12/14 07:11:20;;;;;;;18.63;11.60;;;2.00;65.70;;;;;;5090937;28;20206;-80
2021/12/14 07:13:48;;;;;;;16.37;9.50;;;1.90;1.00;;;;;;5090387;28;20205;-80
2021/12/14 07:16:21;;;;;;;18.33;11.17;;;2.00;1.00;;;;;;5090745;28;20233;-79
2021/12/14 07:18:53;;;;;;;18.53;9.73;;;2.10;1.00;;;;;;5090726;28;20205;-83
2021/12/14 07:21:41;;;;;;;15.83;9.63;;;2.20;1.00;;;;;;5091023;28;20205;-82
2021/12/14 07:24:32;;;;;;;13.57;8.93;;;2.20;1.00;;;;;;5090925;28;20588;-85
2021/12/14 07:27:22;;;;;;;18.13;11.23;;;2.20;1.00;;;;;;5090988;28;20630;-85
2021/12/14 07:29:50;;;;;;;14.37;8.23;;;2.10;1.00;;;;;;5090855;28;20198;-84
2021/12/14 07:32:41;;;;;;;13.23;8.77;;;2.10;1.00;;;;;;5091269;28;20266;-84
2021/12/14 07:35:33;;;;;;;13.90;8.60;;;1.90;1.00;;;;;;5090687;28;20229;-84
2021/12/14 07:38:27;;;;;;;13.30;9.67;;;2.10;1.00;;;;;;5091396;28;20626;-84
2021/12/14 07:40:59;;;;;;;11.63;9.40;;;2.10;1.00;;;;;;5090643;28;20270;-84
2021/12/14 07:43:31;;;;;;;12.63;8.20;;;1.90;1.00;;;;;;5091221;28;20202;-84
2021/12/14 07:46:00;;;;;;;11.33;8.90;;;2.00;1.00;;;;;;5090826;28;20241;-84
2021/12/14 07:48:44;;;;;;;13.83;8.53;;;2.10;1.00;;;;;;5090874;28;20198;-84
2021/12/14 07:51:12;;;;;;;16.80;8.20;;;2.20;1.00;;;;;;5090606;28;20205;-79
2021/12/14 07:53:45;;;;;;;13.50;9.20;;;2.40;1.00;;;;;;5092454;28;20668;-79
2021/12/14 07:56:27;;;;;;;14.83;8.73;;;2.70;1.00;;;;;;5094150;28;20225;-79
2021/12/14 08:01:37;;;;;;;13.73;8.37;;;2.50;1.00;;;;;;5091475;28;20672;-79
2021/12/14 08:04:10;;;;;;;11.97;8.17;;;2.50;1.00;;;;;;5093785;28;20202;-79
2021/12/14 08:06:47;;;;;;;9.90;7.40;;;2.60;1.00;;;;;;5093568;28;20212;-76
2021/12/14 08:09:19;;;;;;;9.97;7.77;;;2.60;1.00;;;;;;5093881;28;20202;-76
2021/12/14 08:11:48;;;;;;;9.17;7.60;;;2.60;1.00;;;;;;5093421;28;20250;-76
2021/12/14 08:14:22;;;;;;;10.03;7.70;;;2.70;1.00;;;;;;5093401;28;20202;-75
2021/12/14 08:16:54;;;;;;;8.50;7.60;;;2.90;1.00;;;;;;5093318;28;20305;-76
2021/12/14 08:19:36;;;;;;;9.30;6.53;;;3.20;1.00;;;;;;5093525;28;20202;-75
2021/12/14 08:22:08;;;;;;;11.10;7.50;;;3.30;1.00;;;;;;5093679;28;20251;-76
2021/12/14 08:24:38;;;;;;;13.53;7.30;;;3.50;1.00;;;;;;5093417;28;20208;-75
2021/12/14 08:27:08;;;;;;;7.63;6.57;;;4.30;1.00;;;;;;5093501;28;20687;-75
2021/12/14 08:29:37;;;;;;;10.37;7.10;;;5.20;1.00;;;;;;5093183;28;20205;-74
2021/12/14 08:32:09;;;;;;;7.77;6.90;;;5.50;1.00;;;;;;5093113;28;20234;-77
2021/12/14 08:34:39;;;;;;;9.30;6.30;;;5.10;1.00;;;;;;5088038;28;20255;-79
2021/12/14 08:37:09;;;;;;;8.73;6.43;;;4.90;1.00;;;;;;5083547;28;20267;-78
2021/12/14 08:39:44;;;;;;;10.77;5.83;;;5.00;1.00;;;;;;5087616;28;20356;-77
2021/12/14 08:42:16;;;;;;;9.33;5.83;;;5.30;1.00;;;;;;5088074;28;20209;-77
2021/12/14 08:44:51;;;;;;;7.87;6.57;;;5.80;1.00;;;;;;5092521;28;20202;-73
2021/12/14 08:47:27;;;;;;;8.90;6.53;;;5.60;1.00;;;;;;5093027;28;20350;-74
2021/12/14 08:49:56;;;;;;;6.57;5.87;;;5.90;1.00;;;;;;5081897;28;20263;-74
2021/12/14 08:52:24;;;;;;;10.47;6.87;;;5.70;1.00;;;;;;5079734;28;20236;-76
2021/12/14 08:54:53;;;;;;;8.63;6.50;;;5.30;1.00;;;;;;5077428;28;20201;-76
2021/12/14 08:57:23;;;;;;;10.00;6.27;;;5.30;1.00;;;;;;5081355;28;20263;-75
2021/12/14 08:59:54;;;;;;;8.13;7.10;;;5.10;1.00;;;;;;5071693;28;20281;-76
2021/12/14 09:02:22;;;;;;;8.90;7.17;;;5.30;1.00;;;;;;5083294;28;20669;-76
2021/12/14 09:04:52;;;;;;;6.90;5.87;;;5.40;1.00;;;;;;5077476;28;20240;-77
2021/12/14 09:07:22;;;;;;;8.80;6.37;;;5.80;1.00;;;;;;5082141;28;20202;-76
2021/12/14 09:09:50;;;;;;;8.93;7.10;;;6.40;1.00;;;;;;5079945;28;20213;-77
2021/12/14 09:12:24;;;;;;;8.27;7.17;;;6.50;1.00;;;;;;5092202;28;20255;-76
2021/12/14 09:14:54;;;;;;;12.47;7.37;;;6.70;1.00;;;;;;5089842;28;20205;-76
2021/12/14 09:17:23;;;;;;;10.93;8.90;;;8.30;1.00;;;;;;5072779;28;20202;-76
2021/12/14 09:19:53;;;;;;;8.67;7.77;;;9.90;1.00;;;;;;5079671;28;20689;-75
2021/12/14 09:22:25;;;;;;;9.30;7.10;;;9.50;1.00;;;;;;5078593;28;20287;-76
2021/12/14 09:24:54;;;;;;;9.77;7.77;;;9.00;1.00;;;;;;5080243;28;20264;-76
2021/12/14 09:27:29;;;;;;;10.77;7.30;;;9.00;1.00;;;;;;5073593;28;20605;-73
2021/12/14 09:29:59;;;;;;;9.47;7.87;;;8.60;1.00;;;;;;5086473;28;20209;-76
2021/12/14 09:32:29;;;;;;;11.10;7.43;;;10.50;1.00;;;;;;5085570;28;20217;-72
2021/12/14 09:34:58;;;;;;;10.73;8.07;;;11.80;1.00;;;;;;5080446;28;20289;-74
2021/12/14 09:37:27;;;;;;;10.97;8.43;;;11.90;1.00;;;;;;5084920;28;20205;-76
2021/12/14 09:39:57;;;;;;;9.70;7.57;;;10.80;1.00;;;;;;5087036;28;20563;-75
2021/12/14 09:42:28;;;;;;;10.23;7.60;;;9.60;1.00;;;;;;5082314;28;20213;-72
2021/12/14 09:45:00;;;;;;;10.50;7.30;;;9.80;1.00;;;;;;5082794;28;20262;-75
2021/12/14 09:47:31;;;;;;;10.00;8.23;;;8.90;1.00;;;;;;5082286;28;20263;-74
2021/12/14 09:50:01;;;;;;;12.17;8.83;;;10.60;1.00;;;;;;5087579;28;20672;-72
2021/12/14 09:52:30;;;;;;;13.93;9.57;;;13.00;1.00;;;;;;5082238;28;20209;-74
2021/12/14 09:54:59;;;;;;;13.63;8.80;;;13.70;1.00;;;;;;5085302;28;20218;-75
2021/12/14 09:57:31;;;;;;;13.38;8.85;;;13.30;1.00;;;;;;5086715;28;20630;-72
2021/12/14 10:00:02;;;;;;;12.88;9.75;;;14.70;1.00;;;;;;5089802;28;20201;-74
2021/12/14 10:02:32;;;;;;;10.10;7.78;;;15.30;1.00;;;;;;5091587;28;20209;-76
2021/12/14 10:05:02;;;;;;;13.48;8.95;;;16.60;1.00;;;;;;5088083;28;20204;-75
2021/12/14 10:07:30;;;;;;;14.65;9.38;;;15.60;1.00;;;;;;5089129;28;20206;-76
2021/12/14 10:10:00;;;;;;;10.63;8.80;;;15.70;1.00;;;;;;5078997;28;20214;-77
2021/12/14 10:15:32;;;;;;;9.65;8.07;;;15.00;1.00;;;;;;5053574;28;20246;-76
2021/12/14 10:18:02;;;;;;;10.10;9.07;;;17.60;1.00;;;;;;5091188;28;20209;-72
2021/12/14 10:20:40;;;;;;;9.07;7.85;;;18.40;99.90;;;;;;5079227;28;20209;-74
2021/12/14 10:23:07;;;;;;;13.95;10.00;;;18.80;99.90;;;;;;5077432;28;20214;-72
2021/12/14 10:25:35;;;;;;;10.52;7.45;;;19.20;99.90;;;;;;5081784;28;20263;-71
2021/12/14 10:28:12;;;;;;;19.40;9.55;;;19.20;99.90;;;;;;5091419;28;20304;-76
2021/12/14 10:30:47;;;;;;;13.35;9.27;;;19.80;99.90;;;;;;5091005;28;20263;-74
2021/12/14 10:33:39;;;;;;;11.40;8.27;;;19.50;99.90;;;;;;5091719;28;20609;-76
2021/12/14 10:36:20;;;;;;;11.77;8.88;;;18.20;99.90;;;;;;5091680;28;20282;-72
2021/12/14 10:39:05;;;;;;;10.27;8.23;;;19.00;99.90;;;;;;5080204;28;20263;-75
2021/12/14 10:47:29;;;;;;;11.23;8.43;;;10.10;1.00;;;;;;5073971;28;20672;-74
2021/12/14 10:49:58;;;;;;;13.77;9.10;;;9.10;1.00;;;;;;5078772;28;20289;-76
2021/12/14 10:52:27;;;;;;;15.03;9.47;;;8.70;1.00;;;;;;5080530;28;20693;-70
2021/12/14 10:54:58;;;;;;;12.93;9.07;;;8.40;1.00;;;;;;5084691;28;20262;-72
2021/12/14 10:57:29;;;;;;;12.23;8.57;;;8.30;1.00;;;;;;5088724;28;20712;-77
2021/12/14 10:59:58;;;;;;;11.47;10.27;;;8.30;1.00;;;;;;5071873;28;20272;-77
2021/12/14 11:02:28;;;;;;;11.87;9.63;;;8.40;1.00;;;;;;5070337;28;20260;-77
2021/12/14 11:04:58;;;;;;;12.37;9.30;;;8.50;1.00;;;;;;5085724;28;20209;-74
2021/12/14 11:07:37;;;;;;;13.17;8.40;;;8.60;1.00;;;;;;5079580;28;20309;-69
2021/12/14 11:10:11;;;;;;;12.17;9.67;;;8.70;1.00;;;;;;5084698;28;20247;-72
2021/12/14 11:12:41;;;;;;;11.97;8.90;;;8.70;1.00;;;;;;5088073;28;20288;-74
2021/12/14 11:15:13;;;;;;;13.43;8.90;;;8.80;1.00;;;;;;5070572;28;20210;-75
2021/12/14 11:20:27;;;;;;;10.53;8.27;;;9.10;1.00;;;;;;5078207;28;20343;-72
2021/12/14 11:23:02;;;;;;;12.10;8.37;;;9.10;1.00;;;;;;5076403;28;20214;-73
2021/12/14 11:25:32;;;;;;;10.00;8.93;;;9.10;1.00;;;;;;5082680;28;20205;-73
2021/12/14 11:28:01;;;;;;;9.87;8.30;;;9.10;1.00;;;;;;5083287;28;20254;-72
2021/12/14 11:30:32;;;;;;;13.63;8.10;;;9.20;1.00;;;;;;5076416;28;20301;-73
2021/12/14 11:33:07;;;;;;;11.67;8.33;;;9.30;1.00;;;;;;5088131;28;20206;-73
2021/12/14 11:35:37;;;;;;;11.90;8.50;;;9.50;1.00;;;;;;5079355;28;20258;-73
2021/12/14 11:38:10;;;;;;;9.17;7.90;;;9.60;1.00;;;;;;5081173;28;20252;-73
2021/12/14 11:40:38;;;;;;;11.27;9.10;;;9.60;1.00;;;;;;5093216;28;20255;-74
2021/12/14 11:43:17;;;;;;;17.03;8.90;;;9.60;1.00;;;;;;5086667;28;20225;-74
2021/12/14 11:45:47;;;;;;;12.70;9.67;;;9.70;1.00;;;;;;5087566;28;20239;-74
2021/12/14 11:48:16;;;;;;;16.53;9.03;;;9.80;1.00;;;;;;5083842;28;20696;-72
2021/12/14 11:50:46;;;;;;;12.80;9.23;;;9.80;1.00;;;;;;5080353;28;20205;-74
2021/12/14 11:53:17;;;;;;;15.57;9.30;;;9.90;1.00;;;;;;5080120;28;20210;-78
2021/12/14 11:55:48;;;;;;;12.53;9.03;;;9.90;1.00;;;;;;5074450;28;20252;-77
2021/12/14 11:58:30;;;;;;;15.63;9.13;;;10.00;1.00;;;;;;5085614;28;20621;-78
2021/12/14 12:01:06;;;;;;;16.43;10.10;;;10.10;1.00;;;;;;5092453;28;20205;-78
2021/12/14 12:03:38;;;;;;;15.83;9.43;;;10.20;1.00;;;;;;5074043;28;20201;-77
2021/12/14 12:06:14;;;;;;;11.07;7.97;;;10.30;1.00;;;;;;5083707;28;20214;-77
2021/12/14 12:11:36;;;;;;;14.13;9.03;;;10.40;1.00;;;;;;5094210;28;20785;-77
2021/12/14 12:14:17;;;;;;;10.63;7.63;;;10.40;1.00;;;;;;5073821;28;20201;-78
2021/12/14 12:16:45;;;;;;;12.30;8.93;;;10.50;1.00;;;;;;5073226;28;20230;-78
2021/12/14 12:19:15;;;;;;;10.33;7.13;;;10.50;1.00;;;;;;5086981;28;20210;-79
2021/12/14 12:21:44;;;;;;;10.00;6.73;;;10.50;1.00;;;;;;5086678;28;20214;-78
2021/12/14 12:24:44;;;;;;;14.97;6.80;;;10.60;1.00;;;;;;5081779;28;20202;-77
2021/12/14 12:27:41;;;;;;;11.80;8.10;;;10.60;1.00;;;;;;5073420;28;20255;-77
2021/12/14 12:30:38;;;;;;;10.33;6.70;;;10.70;1.00;;;;;;5084201;28;20213;-77
2021/12/14 12:33:27;;;;;;;13.47;7.77;;;10.70;1.00;;;;;;5084553;28;20211;-77
2021/12/14 12:36:03;;;;;;;8.63;6.87;;;10.80;1.00;;;;;;5077042;28;20279;-76
2021/12/14 12:38:42;;;;;;;9.20;7.50;;;10.90;1.00;;;;;;5087469;28;20209;-74
2021/12/14 12:41:25;;;;;;;9.27;6.77;;;10.90;1.00;;;;;;5084445;28;20209;-73
2021/12/14 12:43:55;;;;;;;13.77;8.60;;;10.90;1.00;;;;;;5080778;28;20753;-73
2021/12/14 12:46:24;;;;;;;11.67;8.17;;;11.00;1.00;;;;;;5088162;28;20217;-74
2021/12/14 12:49:01;;;;;;;10.63;7.40;;;11.00;1.00;;;;;;5083253;28;20213;-77
2021/12/14 12:51:42;;;;;;;12.47;9.83;;;11.00;1.00;;;;;;5086145;28;20676;-78
2021/12/14 12:54:20;;;;;;;10.37;8.33;;;11.20;1.00;;;;;;5083048;28;20552;-76
2021/12/14 12:56:51;;;;;;;13.20;9.27;;;11.20;1.00;;;;;;5090149;28;20229;-76
2021/12/14 12:59:37;;;;;;;14.57;10.43;;;11.30;1.00;;;;;;5086635;28;20218;-68
2021/12/14 13:02:21;;;;;;;12.07;10.33;;;11.50;1.00;;;;;;5091432;28;20274;-70
2021/12/14 13:04:54;;;;;;;15.20;10.73;;;11.50;1.00;;;;;;5078459;28;20213;-75
2021/12/14 13:07:34;;;;;;;19.40;11.27;;;11.60;1.00;;;;;;5092348;28;20209;-67
2021/12/14 13:10:06;;;;;;;16.20;10.30;;;11.50;1.00;;;;;;5087527;28;20247;-67
2021/12/14 13:12:43;;;;;;;19.73;11.20;;;11.50;1.00;;;;;;5084028;28;20735;-68
2021/12/14 13:15:48;;;;;;;16.93;12.90;;;11.50;1.00;;;;;;5091425;28;20254;-70
2021/12/14 13:18:34;;;;;;;23.97;13.30;;;11.50;1.00;;;;;;5089553;28;20275;-74
2021/12/14 13:21:08;;;;;;;23.27;13.17;;;11.50;1.00;;;;;;5082002;28;20206;-74
2021/12/14 13:23:49;;;;;;;14.90;11.53;;;11.50;1.00;;;;;;5081909;28;20201;-74
2021/12/14 13:26:25;;;;;;;19.37;9.97;;;11.50;1.00;;;;;;5090350;28;20213;-74
2021/12/14 13:28:54;;;;;;;19.13;11.47;;;11.50;1.00;;;;;;5091518;28;20266;-76
2021/12/14 13:31:28;;;;;;;16.70;10.10;;;11.50;1.00;;;;;;5092225;28;20232;-76
2021/12/14 13:33:55;;;;;;;16.57;10.43;;;11.50;1.00;;;;;;5091928;28;20213;-75
2021/12/14 13:36:23;;;;;;;14.47;10.17;;;11.60;1.00;;;;;;5091078;28;20205;-75
2021/12/14 13:38:51;;;;;;;14.13;9.90;;;11.70;1.00;;;;;;5091696;28;20278;-73
2021/12/14 13:41:36;;;;;;;13.27;9.80;;;11.60;1.00;;;;;;5092080;28;20217;-75